Fairmount, Georgia
Current Conditions -  °F | °C
As of 8:35 PM on Tuesday 25 Nov 2014 (Local Time) from KCNI Reporting Station
Clear Clear  
Wind Chill: 50°   Ceiling: Unl
Heat Index: 50°   Visibility: 10mi
Dew Point: 27°   Wind: 3mph
Humidity: 40%   Direction: 310°NW
Pressure: 30.05"   Gusts: NA
Location:  34.44°N, 84.7°W
Report Text: KCNI 260135Z AUTO 31003KT 10SM CLR 10/M03 A3005 RMK AO2
Loading
Personal Weather Stations






























Interactive Weather Map New forecast layout! Learn more

10-Day Weather Forecast

Advertisements
Track Severe Weather on mobile